Time;durP1;ratioP1;P1;durP2;ratioP2;P2;SDS_P1;SDS_P2;PMS_P1;PMS_P2;Temp;Humidity;BMP_temperature;BMP_pressure;BME280_temperature;BME280_humidity;BME280_pressure;Samples;Min_cycle;Max_cycle;Signal;HPM_P1;HPM_P2
2021/03/20 00:00:15;;;;;;;27.13;13.30;;;;;;;0.34;90.19;99382.81;3550127;27;20053;-55
2021/03/20 00:01:56;;;;;;;25.00;12.75;;;;;;;0.33;90.15;99378.53;3538204;28;20579;-55
2021/03/20 00:03:38;;;;;;;25.92;12.93;;;;;;;0.33;89.90;99377.63;3546282;27;20042;-53
2021/03/20 00:05:21;;;;;;;26.40;13.25;;;;;;;0.32;89.93;99379.31;3552038;27;20057;-55
2021/03/20 00:07:02;;;;;;;32.35;15.20;;;;;;;0.28;89.78;99369.78;3549219;27;20043;-55
2021/03/20 00:08:45;;;;;;;30.85;15.70;;;;;;;0.28;89.82;99372.31;3549176;27;20504;-56
2021/03/20 00:10:27;;;;;;;25.70;13.75;;;;;;;0.28;89.72;99376.53;3552247;27;20092;-55
2021/03/20 00:12:09;;;;;;;26.65;14.88;;;;;;;0.28;89.35;99382.53;3549785;27;20542;-56
2021/03/20 00:13:51;;;;;;;26.55;13.60;;;;;;;0.27;89.45;99378.22;3550809;27;20138;-56
2021/03/20 00:15:33;;;;;;;24.80;13.15;;;;;;;0.28;89.55;99373.97;3548596;27;20046;-55
2021/03/20 00:17:15;;;;;;;25.85;13.80;;;;;;;0.26;89.59;99376.47;3553110;27;20051;-55
2021/03/20 00:18:56;;;;;;;24.85;13.20;;;;;;;0.26;89.54;99378.13;3551965;27;20525;-55
2021/03/20 00:20:41;;;;;;;26.17;13.77;;;;;;;0.26;89.61;99373.03;3552468;27;20077;-55
2021/03/20 00:22:22;;;;;;;24.50;13.05;;;;;;;0.25;89.64;99374.72;3552817;27;20050;-55
2021/03/20 00:24:05;;;;;;;26.70;13.95;;;;;;;0.25;89.30;99373.84;3551355;27;20159;-54
2021/03/20 00:25:47;;;;;;;26.98;14.07;;;;;;;0.25;89.55;99378.94;3554861;27;20061;-56
2021/03/20 00:27:28;;;;;;;26.33;14.63;;;;;;;0.23;89.56;99382.28;3552143;27;20053;-55
2021/03/20 00:29:09;;;;;;;27.05;13.98;;;;;;;0.23;89.82;99381.41;3553703;27;20050;-55
2021/03/20 00:30:53;;;;;;;29.20;13.63;;;;;;;0.22;89.81;99383.09;3553420;27;20054;-55
2021/03/20 00:32:36;;;;;;;28.48;15.32;;;;;;;0.22;89.95;99383.09;3553660;27;20042;-55
2021/03/20 00:34:18;;;;;;;24.38;14.05;;;;;;;0.21;90.04;99373.69;3553777;27;20411;-56
2021/03/20 00:36:00;;;;;;;26.95;13.23;;;;;;;0.20;90.11;99382.13;3550813;27;20053;-52
2021/03/20 00:37:42;;;;;;;26.60;13.48;;;;;;;0.19;89.89;99382.94;3554720;27;20043;-54
2021/03/20 00:39:23;;;;;;;25.15;13.07;;;;;;;0.18;89.97;99383.72;3551154;27;20111;-55
2021/03/20 00:41:05;;;;;;;27.20;13.77;;;;;;;0.18;90.01;99383.72;3553291;27;20050;-54
2021/03/20 00:42:47;;;;;;;27.42;15.35;;;;;;;0.19;90.11;99380.38;3554733;27;20259;-55
2021/03/20 00:44:28;;;;;;;36.95;18.17;;;;;;;0.20;89.98;99376.16;3550970;27;20456;-55
2021/03/20 00:46:10;;;;;;;44.25;20.38;;;;;;;0.20;89.79;99382.13;3554411;27;20423;-55
2021/03/20 00:47:51;;;;;;;47.53;22.08;;;;;;;0.19;89.75;99375.28;3553035;27;20502;-54
2021/03/20 00:49:34;;;;;;;44.50;21.45;;;;;;;0.20;90.00;99371.06;3554545;27;20050;-55
2021/03/20 00:51:16;;;;;;;49.17;21.65;;;;;;;0.18;89.79;99372.66;3550638;27;20522;-55
2021/03/20 00:52:57;;;;;;;54.10;22.42;;;;;;;0.17;89.60;99378.53;3553257;27;20335;-53
2021/03/20 00:54:38;;;;;;;39.33;19.73;;;;;;;0.16;89.46;99379.34;3554575;27;20046;-55
2021/03/20 00:56:20;;;;;;;44.67;19.60;;;;;;;0.13;89.48;99376.66;3553003;27;20049;-55
2021/03/20 00:58:17;;;;;;;40.60;18.50;;;;;;;0.12;89.40;99368.13;3554243;27;20507;-53
2021/03/20 00:59:58;;;;;;;42.00;19.52;;;;;;;0.12;89.76;99372.34;3551016;27;20039;-54
2021/03/20 01:01:39;;;;;;;42.08;19.17;;;;;;;0.12;89.23;99369.78;3553985;27;20108;-55
2021/03/20 01:03:21;;;;;;;45.90;18.92;;;;;;;0.10;89.38;99371.38;3552203;27;20521;-54
2021/03/20 01:05:04;;;;;;;37.13;19.08;;;;;;;0.09;89.36;99367.09;3551913;27;20046;-53
2021/03/20 01:06:46;;;;;;;36.78;18.98;;;;;;;0.08;89.39;99376.41;3553544;27;20134;-54
2021/03/20 01:08:39;;;;;;;39.20;17.85;;;;;;;0.07;89.55;99372.13;3550602;27;20475;-53
2021/03/20 01:10:22;;;;;;;37.58;18.73;;;;;;;0.06;89.38;99372.91;3554226;27;20457;-52
2021/03/20 01:12:04;;;;;;;38.38;18.80;;;;;;;0.06;89.12;99372.03;3550578;27;20530;-53
2021/03/20 01:13:45;;;;;;;39.63;18.95;;;;;;;0.04;89.39;99371.97;3550884;27;20495;-54
2021/03/20 01:15:27;;;;;;;37.45;19.33;;;;;;;0.04;89.29;99367.72;3552748;27;20055;-53
2021/03/20 01:17:08;;;;;;;35.22;17.98;;;;;;;0.03;89.03;99368.53;3550549;27;20071;-51
2021/03/20 01:18:50;;;;;;;41.28;19.60;;;;;;;0.02;89.41;99366.78;3553921;27;20472;-52
2021/03/20 01:20:33;;;;;;;38.63;18.45;;;;;;;0.02;89.06;99373.56;3552677;27;20046;-52
2021/03/20 01:22:14;;;;;;;37.25;19.13;;;;;;;0.03;88.88;99367.66;3554355;27;20046;-53
2021/03/20 01:23:56;;;;;;;35.35;18.55;;;;;;;0.03;88.83;99370.19;3551447;27;20089;-53
2021/03/20 01:25:38;;;;;;;38.15;18.70;;;;;;;0.02;88.97;99355.72;3552018;27;20504;-54
2021/03/20 01:27:19;;;;;;;45.95;19.83;;;;;;;0.02;88.69;99365.91;3553518;27;20053;-52
2021/03/20 01:29:00;;;;;;;35.63;19.02;;;;;;;0.03;88.61;99362.53;3552893;27;20042;-53
2021/03/20 01:30:43;;;;;;;39.47;19.35;;;;;;;0.02;88.32;99364.22;3553795;27;20075;-53
2021/03/20 01:32:25;;;;;;;39.83;20.00;;;;;;;0.03;88.29;99371.09;3550247;27;20047;-54
2021/03/20 01:34:07;;;;;;;43.97;20.92;;;;;;;0.04;88.53;99364.31;3554189;27;20047;-54
2021/03/20 01:35:49;;;;;;;42.28;20.63;;;;;;;0.05;88.51;99368.63;3550271;27;20111;-53
2021/03/20 01:37:31;;;;;;;39.08;20.02;;;;;;;0.06;88.72;99361.84;3551762;27;20511;-51
2021/03/20 01:39:13;;;;;;;39.60;19.02;;;;;;;0.07;88.33;99374.66;3552735;27;20518;-54
2021/03/20 01:40:57;;;;;;;39.20;19.30;;;;;;;0.07;88.59;99364.47;3552730;27;20211;-51
2021/03/20 01:42:43;;;;;;;44.33;19.65;;;;;;;0.08;88.91;99371.31;3553736;27;20051;-52
2021/03/20 01:44:25;;;;;;;43.25;22.17;;;;;;;0.09;88.81;99374.75;3552652;27;20055;-52
2021/03/20 01:46:36;;;;;;;42.13;21.30;;;;;;;0.08;88.58;99378.94;3553361;27;20058;-53
2021/03/20 01:48:22;;;;;;;42.65;20.83;;;;;;;0.09;88.55;99373.06;3554456;27;20099;-52
2021/03/20 01:50:04;;;;;;;38.00;20.30;;;;;;;0.10;88.64;99379.03;3550523;27;20051;-51
2021/03/20 01:51:54;;;;;;;47.38;21.00;;;;;;;0.08;88.77;99381.50;3553821;27;20050;-52
2021/03/20 01:53:40;;;;;;;42.53;21.92;;;;;;;0.10;88.46;99382.47;3550377;27;20054;-50
2021/03/20 01:55:22;;;;;;;44.40;22.13;;;;;;;0.11;88.67;99386.75;3552154;27;20042;-55
2021/03/20 01:57:04;;;;;;;50.20;23.02;;;;;;;0.12;88.62;99378.34;3552484;27;20220;-52
2021/03/20 01:58:48;;;;;;;46.53;23.60;;;;;;;0.13;88.63;99381.75;3552296;27;20401;-54
2021/03/20 02:00:32;;;;;;;;;;;;;;;0.14;88.63;99389.47;3553899;27;20050;-52
2021/03/20 02:02:14;;;;;;;42.90;21.25;;;;;;;0.13;88.44;99387.72;3550013;27;20010;-54
2021/03/20 02:03:57;;;;;;;41.40;21.50;;;;;;;0.14;88.12;99386.94;3553121;27;20050;-54
2021/03/20 02:05:38;;;;;;;45.00;23.58;;;;;;;0.16;88.05;99392.13;3552689;27;20049;-51
2021/03/20 02:07:20;;;;;;;47.70;22.77;;;;;;;0.16;87.76;99397.22;3551030;27;20562;-52
2021/03/20 02:09:09;;;;;;;48.75;25.88;;;;;;;0.16;87.89;99392.97;3552760;27;20061;-53
2021/03/20 02:10:55;;;;;;;54.30;27.33;;;;;;;0.17;87.81;99389.66;3552371;27;20050;-52
2021/03/20 02:12:40;;;;;;;57.08;27.50;;;;;;;0.17;87.41;99396.41;3553479;27;20051;-52
2021/03/20 02:14:35;;;;;;;50.95;25.23;;;;;;;0.16;87.33;99400.63;3550103;27;20195;-54
2021/03/20 02:16:23;;;;;;;56.90;26.55;;;;;;;0.16;87.08;99392.13;3552320;27;20054;-53
2021/03/20 02:18:14;;;;;;;52.33;26.13;;;;;;;0.16;87.18;99395.53;3553180;27;20419;-51
2021/03/20 02:20:25;;;;;;;46.00;24.90;;;;;;;0.15;86.74;99398.00;3553386;27;20081;-50
2021/03/20 02:22:15;;;;;;;48.08;23.70;;;;;;;0.15;86.50;99398.88;3550994;27;20049;-52
2021/03/20 02:24:23;;;;;;;49.40;22.83;;;;;;;0.14;86.63;99398.81;3552226;27;20053;-54
2021/03/20 02:26:25;;;;;;;44.55;22.23;;;;;;;0.14;86.36;99397.13;3549741;27;20488;-51
2021/03/20 02:28:48;;;;;;;46.13;22.20;;;;;;;0.14;86.97;99399.69;3551034;27;20045;-52
2021/03/20 02:30:54;;;;;;;44.42;22.48;;;;;;;0.16;87.18;99402.31;3538934;28;20524;-52
2021/03/20 02:33:04;;;;;;;45.50;20.67;;;;;;;0.14;86.70;99401.38;3550969;27;20046;-51
2021/03/20 02:34:54;;;;;;;38.25;18.23;;;;;;;0.15;86.46;99406.50;3540816;27;20588;-53
2021/03/20 02:36:40;;;;;;;39.70;18.63;;;;;;;0.15;86.44;99400.56;3552833;27;20138;-51
2021/03/20 02:38:30;;;;;;;40.72;18.08;;;;;;;0.15;86.24;99403.09;3550572;27;20054;-51
2021/03/20 02:40:19;;;;;;;38.58;19.67;;;;;;;0.15;86.03;99406.50;3551334;27;20069;-53
2021/03/20 02:42:09;;;;;;;35.78;18.45;;;;;;;0.15;85.78;99409.06;3539058;28;20077;-51
2021/03/20 02:43:58;;;;;;;33.60;17.35;;;;;;;0.14;85.45;99402.22;3547268;27;20062;-51
2021/03/20 02:45:42;;;;;;;34.90;17.02;;;;;;;0.14;85.35;99401.38;3551889;27;20050;-54
2021/03/20 02:47:37;;;;;;;30.73;15.88;;;;;;;0.13;85.17;99405.56;3551400;27;20058;-51
2021/03/20 02:49:25;;;;;;;30.35;15.18;;;;;;;0.12;85.15;99408.94;3549495;27;20058;-51
2021/03/20 02:51:10;;;;;;;27.65;14.52;;;;;;;0.12;84.98;99405.47;3553268;27;20051;-52
2021/03/20 02:52:59;;;;;;;28.52;14.93;;;;;;;0.11;85.03;99406.31;3551929;27;20043;-51
2021/03/20 02:54:46;;;;;;;26.42;13.13;;;;;;;0.11;85.04;99408.84;3551407;27;20076;-51
2021/03/20 02:56:34;;;;;;;25.15;12.88;;;;;;;0.10;84.99;99409.63;3550788;27;20078;-53
2021/03/20 02:58:20;;;;;;;23.63;13.20;;;;;;;0.10;84.89;99407.09;3551703;27;20110;-50
2021/03/20 03:00:08;;;;;;;25.00;13.20;;;;;;;0.10;85.04;99414.75;3553254;27;20074;-50
2021/03/20 03:01:52;;;;;;;26.42;13.05;;;;;;;0.09;85.09;99410.47;3549289;27;20526;-52
2021/03/20 03:03:38;;;;;;;20.73;11.40;;;;;;;0.08;84.89;99416.34;3550826;27;20039;-51
2021/03/20 03:05:25;;;;;;;23.42;12.55;;;;;;;0.06;84.61;99421.34;3551678;27;20054;-50
2021/03/20 03:07:16;;;;;;;27.20;12.32;;;;;;;0.04;85.04;99416.19;3549539;27;20138;-53
2021/03/20 03:09:00;;;;;;;25.67;12.20;;;;;;;0.03;85.04;99413.53;3553004;27;20623;-51
2021/03/20 03:10:47;;;;;;;23.83;12.80;;;;;;;0.01;85.36;99420.25;3550599;27;20096;-50
2021/03/20 03:12:35;;;;;;;21.73;11.75;;;;;;;-0.01;85.74;99422.72;3550989;27;20047;-50
2021/03/20 03:14:23;;;;;;;26.88;12.15;;;;;;;-0.01;85.93;99424.41;3551080;27;20099;-51
2021/03/20 03:16:11;;;;;;;26.02;13.02;;;;;;;-0.03;86.11;99426.84;3549299;27;20107;-51
2021/03/20 03:17:59;;;;;;;21.67;11.80;;;;;;;-0.03;85.94;99428.53;3552583;27;20108;-50
2021/03/20 03:19:46;;;;;;;25.50;12.10;;;;;;;-0.05;86.22;99436.09;3549135;27;20039;-50
2021/03/20 03:21:31;;;;;;;23.80;12.90;;;;;;;-0.08;86.55;99420.66;3550714;27;20534;-50
2021/03/20 03:23:16;;;;;;;28.77;12.35;;;;;;;-0.10;86.87;99427.34;3552038;27;20047;-50
2021/03/20 03:24:59;;;;;;;22.95;12.43;;;;;;;-0.12;86.67;99428.94;3549246;27;20051;-50
2021/03/20 03:26:43;;;;;;;24.02;11.77;;;;;;;-0.16;86.98;99430.47;3552798;27;20058;-51
2021/03/20 03:28:27;;;;;;;;;;;;;;;-0.18;86.99;99426.09;3549395;27;20499;-50
2021/03/20 03:30:13;;;;;;;26.50;10.73;;;;;;;-0.19;87.23;99430.28;3551785;27;19922;-49
2021/03/20 03:32:04;;;;;;;24.83;11.68;;;;;;;-0.21;87.35;99425.91;3552331;27;20050;-50
2021/03/20 03:33:54;;;;;;;23.35;12.35;;;;;;;-0.22;87.60;99436.91;3548978;27;20496;-50
2021/03/20 03:35:38;;;;;;;23.25;10.95;;;;;;;-0.23;87.64;99425.84;3538495;28;20047;-51
2021/03/20 03:37:28;;;;;;;20.80;11.10;;;;;;;-0.23;87.97;99430.94;3548423;27;20073;-51
2021/03/20 03:39:21;;;;;;;24.00;12.20;;;;;;;-0.24;87.78;99434.25;3550829;27;20081;-50
2021/03/20 03:41:08;;;;;;;22.40;11.63;;;;;;;-0.24;87.76;99431.72;3551236;27;20062;-51
2021/03/20 03:42:51;;;;;;;27.02;11.85;;;;;;;-0.24;87.83;99436.81;3548742;27;20427;-50
2021/03/20 03:44:32;;;;;;;24.67;11.77;;;;;;;-0.24;87.94;99430.84;3552639;27;20070;-50
2021/03/20 03:46:14;;;;;;;25.98;11.75;;;;;;;-0.25;87.75;99432.53;3548983;27;20400;-50
2021/03/20 03:47:57;;;;;;;21.30;11.00;;;;;;;-0.23;87.92;99432.63;3551715;27;20042;-51
2021/03/20 03:49:39;;;;;;;21.05;10.98;;;;;;;-0.25;87.96;99431.63;3551490;27;20077;-51
2021/03/20 03:51:21;;;;;;;20.30;10.73;;;;;;;-0.25;88.06;99434.19;3548823;27;20518;-51
2021/03/20 03:53:03;;;;;;;22.75;12.25;;;;;;;-0.26;88.29;99432.44;3552485;27;20050;-51
2021/03/20 03:54:45;;;;;;;22.85;10.90;;;;;;;-0.26;88.23;99437.53;3548657;27;20047;-49
2021/03/20 03:56:38;;;;;;;25.75;11.75;;;;;;;-0.27;88.30;99439.22;3552244;27;20568;-51
2021/03/20 03:58:28;;;;;;;22.00;12.07;;;;;;;-0.29;88.63;99434.81;3549215;27;20078;-52
2021/03/20 04:00:18;;;;;;;23.33;11.18;;;;;;;-0.31;88.48;99439.84;3551563;27;20077;-51
2021/03/20 04:02:11;;;;;;;18.33;9.50;;;;;;;-0.36;88.43;99438.72;3551909;27;20057;-54
2021/03/20 04:03:59;;;;;;;20.42;10.45;;;;;;;-0.39;88.38;99438.56;3548985;27;20550;-54
2021/03/20 04:05:49;;;;;;;14.35;7.97;;;;;;;-0.42;88.38;99438.41;3551872;27;20176;-56
2021/03/20 04:07:42;;;;;;;20.02;9.50;;;;;;;-0.45;88.85;99435.69;3549728;27;20050;-55
2021/03/20 04:09:39;;;;;;;14.63;7.85;;;;;;;-0.48;88.86;99438.06;3550946;27;20099;-55
2021/03/20 04:11:24;;;;;;;15.52;8.45;;;;;;;-0.51;88.96;99441.34;3552332;27;20050;-54
2021/03/20 04:13:12;;;;;;;17.58;8.35;;;;;;;-0.51;89.51;99440.47;3547228;27;20455;-55
2021/03/20 04:15:02;;;;;;;17.60;7.95;;;;;;;-0.50;89.51;99442.19;3549789;27;20111;-54
2021/03/20 04:16:52;;;;;;;14.15;8.00;;;;;;;-0.48;89.84;99445.69;3550834;27;20142;-56
2021/03/20 04:18:41;;;;;;;14.45;7.10;;;;;;;-0.49;89.71;99439.75;3550840;27;20498;-56
2021/03/20 04:20:27;;;;;;;15.48;7.68;;;;;;;-0.48;90.02;99448.25;3552400;27;20077;-55
2021/03/20 04:22:14;;;;;;;15.45;8.02;;;;;;;-0.47;89.98;99447.47;3550978;27;20042;-52
2021/03/20 04:24:04;;;;;;;16.08;8.18;;;;;;;-0.47;90.02;99447.47;3548797;27;20051;-56
2021/03/20 04:25:55;;;;;;;15.80;7.93;;;;;;;-0.46;89.99;99446.69;3551407;27;20520;-56
2021/03/20 04:27:47;;;;;;;21.30;9.60;;;;;;;-0.45;89.90;99446.75;3548693;27;20046;-55
2021/03/20 04:29:33;;;;;;;21.20;9.25;;;;;;;-0.43;89.95;99447.72;3551328;27;20047;-56
2021/03/20 04:31:20;;;;;;;19.63;9.82;;;;;;;-0.41;90.33;99451.22;3549712;27;20051;-56
2021/03/20 04:33:08;;;;;;;19.08;10.57;;;;;;;-0.41;90.13;99450.31;3548729;27;20051;-55
2021/03/20 04:34:56;;;;;;;17.95;9.95;;;;;;;-0.41;89.98;99442.69;3552164;27;20125;-55
2021/03/20 04:36:42;;;;;;;19.83;10.60;;;;;;;-0.40;90.07;99450.41;3548323;27;20061;-56
2021/03/20 04:38:25;;;;;;;21.30;10.32;;;;;;;-0.39;90.26;99454.72;3551212;27;20077;-56
2021/03/20 04:40:09;;;;;;;21.42;10.60;;;;;;;-0.38;90.10;99448.84;3550166;27;20050;-56
2021/03/20 04:41:53;;;;;;;22.58;11.35;;;;;;;-0.38;90.33;99443.75;3549726;27;20051;-56
2021/03/20 04:43:36;;;;;;;19.83;10.93;;;;;;;-0.34;90.36;99449.91;3551241;27;20473;-50
2021/03/20 04:45:28;;;;;;;18.52;10.65;;;;;;;-0.30;90.41;99458.56;3548657;27;20042;-51
2021/03/20 04:47:15;;;;;;;18.40;9.15;;;;;;;-0.26;90.43;99450.28;3551765;27;20058;-50
2021/03/20 04:49:06;;;;;;;20.75;10.63;;;;;;;-0.25;90.37;99452.91;3551955;27;20050;-52
2021/03/20 04:50:53;;;;;;;19.67;10.35;;;;;;;-0.22;90.26;99455.63;3548457;27;20074;-52
2021/03/20 04:52:38;;;;;;;21.75;11.25;;;;;;;-0.20;89.83;99460.78;3552185;27;20050;-51
2021/03/20 04:54:21;;;;;;;22.75;10.98;;;;;;;-0.19;89.64;99460.00;3549716;27;20080;-52
2021/03/20 04:56:07;;;;;;;23.90;12.05;;;;;;;-0.18;89.44;99465.19;3551834;27;20074;-56
2021/03/20 04:57:54;;;;;;;21.33;11.82;;;;;;;-0.17;89.61;99464.38;3548669;27;20054;-55
2021/03/20 04:59:49;;;;;;;25.25;13.32;;;;;;;-0.15;89.25;99474.66;3548388;27;20053;-56
2021/03/20 05:01:38;;;;;;;28.98;13.07;;;;;;;-0.13;89.01;99472.19;3537460;28;20519;-56
2021/03/20 05:03:26;;;;;;;26.77;11.82;;;;;;;-0.14;89.17;99476.44;3547587;27;20042;-56
2021/03/20 05:05:22;;;;;;;23.48;13.00;;;;;;;-0.12;89.13;99479.06;3553186;27;20079;-56
2021/03/20 05:07:04;;;;;;;28.95;12.85;;;;;;;-0.15;88.65;99475.56;3554726;27;20577;-55
2021/03/20 05:08:52;;;;;;;23.17;12.38;;;;;;;-0.16;88.29;99475.47;3550605;27;20042;-54
2021/03/20 05:10:42;;;;;;;26.48;12.57;;;;;;;-0.18;88.62;99477.94;3553878;27;20073;-55
2021/03/20 05:12:26;;;;;;;24.52;12.35;;;;;;;-0.17;88.51;99476.25;3552720;27;20074;-55
2021/03/20 05:14:23;;;;;;;26.88;14.43;;;;;;;-0.15;88.47;99477.22;3551024;27;20047;-56
2021/03/20 05:16:23;;;;;;;27.60;13.60;;;;;;;-0.12;88.79;99482.47;3555111;27;20430;-56
2021/03/20 05:18:05;;;;;;;30.00;13.52;;;;;;;-0.09;88.37;99489.44;3552948;27;20647;-55
2021/03/20 05:19:47;;;;;;;29.45;14.80;;;;;;;-0.07;88.61;99487.84;3553600;27;20047;-57
2021/03/20 05:21:30;;;;;;;26.17;13.55;;;;;;;-0.06;87.98;99487.91;3550976;27;20054;-56
2021/03/20 05:23:11;;;;;;;25.20;13.15;;;;;;;-0.07;87.30;99491.25;3552228;27;20054;-56
2021/03/20 05:24:55;;;;;;;25.52;13.20;;;;;;;-0.08;86.77;99494.56;3552624;27;20047;-57
2021/03/20 05:26:37;;;;;;;26.00;13.15;;;;;;;-0.07;86.91;99492.94;3552639;27;20082;-56
2021/03/20 05:28:18;;;;;;;25.33;12.63;;;;;;;-0.07;86.96;99493.78;3554167;27;20058;-56
2021/03/20 05:30:00;;;;;;;28.20;13.13;;;;;;;-0.03;87.11;99497.38;3550420;27;20051;-56
2021/03/20 05:31:43;;;;;;;26.77;13.25;;;;;;;-0.03;86.17;99498.25;3553493;27;20047;-56
2021/03/20 05:33:24;;;;;;;24.63;12.85;;;;;;;-0.03;85.99;99502.47;3553203;27;20143;-56
2021/03/20 05:35:08;;;;;;;20.40;11.35;;;;;;;-0.05;85.64;99497.31;3551035;27;20055;-55
2021/03/20 05:36:51;;;;;;;21.70;12.07;;;;;;;-0.08;85.49;99496.25;3553184;27;20055;-56
2021/03/20 05:38:32;;;;;;;23.75;10.75;;;;;;;-0.09;85.61;99497.06;3550309;27;20480;-57
2021/03/20 05:40:20;;;;;;;20.40;11.25;;;;;;;-0.15;84.97;99493.41;3554062;27;20107;-56
2021/03/20 05:42:22;;;;;;;23.20;11.27;;;;;;;-0.19;84.67;99495.69;3549832;27;20047;-57
2021/03/20 05:44:16;;;;;;;24.90;12.23;;;;;;;-0.20;85.04;99494.81;3550444;27;20047;-57
2021/03/20 05:46:15;;;;;;;;;;;;;;;-0.17;85.40;99499.19;3540006;28;20082;-57
2021/03/20 05:48:07;;;;;;;21.95;10.93;;;;;;;-0.09;85.57;99502.19;3550253;27;19923;-57
2021/03/20 05:50:00;;;;;;;22.45;11.40;;;;;;;-0.05;85.08;99507.50;3551863;27;20058;-57
2021/03/20 05:51:56;;;;;;;22.52;11.25;;;;;;;-0.01;84.50;99504.31;3553398;27;20050;-58
2021/03/20 05:53:47;;;;;;;17.85;9.88;;;;;;;0.04;83.91;99507.97;3550157;27;20074;-51
2021/03/20 05:55:34;;;;;;;18.60;10.02;;;;;;;0.05;83.60;99503.78;3553142;27;20499;-54
2021/03/20 05:57:24;;;;;;;19.20;10.00;;;;;;;0.06;83.62;99502.97;3551768;27;20057;-50
2021/03/20 05:59:19;;;;;;;17.70;9.20;;;;;;;0.08;83.05;99511.56;3552650;27;20047;-53
2021/03/20 06:01:10;;;;;;;17.13;9.40;;;;;;;0.10;83.25;99514.19;3539548;28;20492;-54
2021/03/20 06:03:19;;;;;;;21.20;10.15;;;;;;;0.19;83.57;99512.16;3552081;27;20536;-57
2021/03/20 06:05:13;;;;;;;20.67;10.30;;;;;;;0.20;82.53;99512.19;3550589;27;20043;-59
2021/03/20 06:07:06;;;;;;;;;;;;;;;0.26;82.42;99508.22;3548961;27;20076;-59
2021/03/20 06:08:59;;;;;;;15.98;8.30;;;;;;;0.29;81.91;99506.72;3549931;27;19929;-58
2021/03/20 06:10:52;;;;;;;19.65;10.23;;;;;;;0.35;82.03;99506.16;3550590;27;20046;-58
2021/03/20 06:12:50;;;;;;;17.67;9.55;;;;;;;0.35;81.88;99514.69;3553327;27;20058;-58
2021/03/20 06:15:01;;;;;;;17.65;8.90;;;;;;;0.37;81.09;99513.09;3548345;27;20148;-58
2021/03/20 06:17:00;;;;;;;17.60;9.75;;;;;;;0.38;80.98;99516.50;3550040;27;20050;-57
2021/03/20 06:19:09;;;;;;;16.88;9.50;;;;;;;0.42;80.68;99518.44;3539154;28;20058;-57
2021/03/20 06:20:54;;;;;;;18.67;9.25;;;;;;;0.42;79.88;99516.75;3551076;27;20058;-57
2021/03/20 06:23:05;;;;;;;17.17;9.10;;;;;;;0.44;80.41;99519.41;3552377;27;20051;-56
2021/03/20 06:25:11;;;;;;;22.15;9.90;;;;;;;0.46;80.07;99519.47;3539171;28;20054;-56
2021/03/20 06:26:55;;;;;;;18.30;10.10;;;;;;;0.48;79.74;99528.09;3553110;27;20058;-56
2021/03/20 06:28:41;;;;;;;20.08;10.10;;;;;;;0.49;79.40;99528.16;3550290;27;20047;-56
2021/03/20 06:30:44;;;;;;;16.33;8.98;;;;;;;0.52;79.62;99525.75;3552689;27;20054;-56
2021/03/20 06:32:31;;;;;;;17.13;9.02;;;;;;;0.56;79.73;99527.69;3542248;27;20153;-56
2021/03/20 06:34:18;;;;;;;17.75;9.10;;;;;;;0.63;79.95;99530.53;3551285;27;20457;-56
2021/03/20 06:36:07;;;;;;;16.77;9.15;;;;;;;0.72;80.35;99530.97;3551279;27;20062;-55
2021/03/20 06:37:53;;;;;;;17.92;9.25;;;;;;;0.82;80.02;99535.75;3553384;27;20185;-59
2021/03/20 06:39:39;;;;;;;15.10;9.07;;;;;;;0.92;80.24;99535.41;3553360;27;20479;-58
2021/03/20 06:41:28;;;;;;;19.67;9.95;;;;;;;1.06;80.79;99536.09;3549490;27;20422;-59
2021/03/20 06:43:13;;;;;;;19.38;8.63;;;;;;;1.17;79.58;99539.19;3551280;27;20049;-59
2021/03/20 06:44:59;;;;;;;16.95;9.02;;;;;;;1.20;77.98;99539.34;3552053;27;20055;-59
2021/03/20 06:46:43;;;;;;;14.82;8.27;;;;;;;1.18;76.61;99540.94;3549514;27;20053;-59
2021/03/20 06:48:29;;;;;;;19.95;9.48;;;;;;;1.18;76.86;99549.47;3553049;27;20074;-59
2021/03/20 06:50:23;;;;;;;17.52;9.55;;;;;;;1.20;77.61;99543.59;3549575;27;20503;-59
2021/03/20 06:52:08;;;;;;;15.80;8.43;;;;;;;1.22;77.25;99539.41;3551808;27;20050;-59
2021/03/20 06:53:58;;;;;;;16.05;9.15;;;;;;;1.27;78.33;99538.84;3553132;27;20091;-60
2021/03/20 06:55:42;;;;;;;16.45;9.43;;;;;;;1.30;76.51;99540.66;3549453;27;20050;-60
2021/03/20 06:57:24;;;;;;;15.50;8.23;;;;;;;1.32;76.26;99544.19;3553040;27;20061;-60
2021/03/20 06:59:10;;;;;;;18.33;8.70;;;;;;;1.37;77.05;99543.59;3549583;27;20051;-60
2021/03/20 07:00:51;;;;;;;16.55;9.15;;;;;;;1.43;76.16;99544.69;3551471;27;20053;-59
2021/03/20 07:02:44;;;;;;;16.63;8.95;;;;;;;1.50;76.97;99545.03;3550979;27;20460;-57
2021/03/20 07:04:50;;;;;;;19.42;11.00;;;;;;;1.61;76.92;99542.13;3549622;27;20082;-57
2021/03/20 07:06:42;;;;;;;15.07;7.63;;;;;;;1.66;75.23;99543.22;3552992;27;20058;-58
2021/03/20 07:08:38;;;;;;;16.50;7.65;;;;;;;1.73;75.35;99546.13;3550563;27;20082;-58
2021/03/20 07:10:37;;;;;;;18.00;8.45;;;;;;;1.85;74.95;99547.53;3550354;27;20396;-59
2021/03/20 07:12:20;;;;;;;17.92;8.13;;;;;;;1.98;74.61;99547.25;3552823;27;20059;-58
2021/03/20 07:14:04;;;;;;;17.27;8.13;;;;;;;2.13;73.84;99544.53;3548207;27;20050;-59
2021/03/20 07:15:49;;;;;;;;;;;;;;;2.27;74.51;99546.03;3551118;27;20051;-58
2021/03/20 07:17:35;;;;;;;14.18;7.60;;;;;;;2.53;75.57;99550.53;3551606;27;19976;-58
2021/03/20 07:19:16;;;;;;;19.77;8.25;;;;;;;2.72;73.86;99549.66;3549406;27;20511;-56
2021/03/20 07:20:59;;;;;;;16.63;8.32;;;;;;;2.92;74.41;99553.06;3552778;27;20058;-56
2021/03/20 07:22:44;;;;;;;16.33;7.50;;;;;;;3.05;71.11;99560.47;3549209;27;20043;-56
2021/03/20 07:24:32;;;;;;;15.48;7.82;;;;;;;3.19;71.75;99549.09;3552519;27;20049;-56
2021/03/20 07:26:14;;;;;;;14.57;7.28;;;;;;;3.30;69.12;99552.09;3549155;27;20107;-55
2021/03/20 07:28:05;;;;;;;17.00;7.72;;;;;;;3.35;70.38;99558.28;3550092;27;20043;-55
2021/03/20 07:29:49;;;;;;;13.75;6.80;;;;;;;3.40;69.52;99561.00;3552761;27;20419;-56
2021/03/20 07:31:30;;;;;;;15.65;7.30;;;;;;;3.39;67.10;99562.72;3551371;27;20046;-55
2021/03/20 07:33:28;;;;;;;13.95;7.22;;;;;;;3.43;68.60;99564.56;3553000;27;20065;-57
2021/03/20 07:35:23;;;;;;;14.75;7.68;;;;;;;3.51;70.42;99564.03;3552985;27;20054;-57
2021/03/20 07:37:12;;;;;;;15.90;7.55;;;;;;;3.55;69.19;99559.06;3549046;27;20043;-56
2021/03/20 07:39:19;;;;;;;13.25;7.28;;;;;;;3.63;70.60;99565.38;3552597;27;20051;-56
2021/03/20 07:41:06;;;;;;;15.02;7.47;;;;;;;3.71;70.92;99569.94;3527502;27;20046;-56
2021/03/20 07:42:47;;;;;;;15.82;7.25;;;;;;;3.76;68.76;99571.00;3549017;27;20419;-57
2021/03/20 07:44:47;;;;;;;11.55;6.15;;;;;;;3.84;68.76;99572.16;3552528;27;20070;-57
2021/03/20 07:46:29;;;;;;;13.88;7.78;;;;;;;3.83;66.08;99578.97;3551129;27;20054;-57
2021/03/20 07:48:31;;;;;;;13.25;7.63;;;;;;;3.92;66.99;99580.16;3552133;27;20050;-57
2021/03/20 07:50:27;;;;;;;15.73;8.43;;;;;;;4.03;67.54;99572.03;3546031;27;20442;-57
2021/03/20 07:52:22;;;;;;;14.05;7.75;;;;;;;4.12;68.56;99576.66;3549146;27;20039;-57
2021/03/20 07:54:04;;;;;;;14.55;8.00;;;;;;;4.21;66.78;99568.41;3552041;27;20042;-56
2021/03/20 07:56:01;;;;;;;14.30;8.18;;;;;;;4.29;66.87;99573.88;3549542;27;20411;-56
2021/03/20 07:57:52;;;;;;;13.93;7.82;;;;;;;4.29;65.38;99576.44;3550594;27;20126;-56
2021/03/20 07:59:34;;;;;;;17.80;7.35;;;;;;;4.20;65.90;99574.41;3548364;27;20111;-57
2021/03/20 08:01:27;;;;;;;14.10;8.15;;;;;;;4.19;67.26;99575.19;3551060;27;20529;-59
2021/03/20 08:03:16;;;;;;;12.38;6.88;;;;;;;4.12;64.38;99576.66;3550924;27;20491;-59
2021/03/20 08:05:00;;;;;;;17.30;8.10;;;;;;;4.03;65.14;99573.75;3550916;27;20054;-59
2021/03/20 08:06:48;;;;;;;17.63;9.48;;;;;;;4.00;65.99;99571.94;3548597;27;20054;-59
2021/03/20 08:08:29;;;;;;;13.18;7.80;;;;;;;3.93;64.00;99569.97;3552363;27;20043;-59
2021/03/20 08:10:18;;;;;;;15.13;7.50;;;;;;;3.81;63.01;99578.06;3548992;27;20141;-57
2021/03/20 08:12:10;;;;;;;13.45;7.38;;;;;;;3.77;64.71;99575.28;3551472;27;20081;-57
2021/03/20 08:14:18;;;;;;;14.07;7.88;;;;;;;3.78;65.53;99574.50;3549975;27;20054;-57
2021/03/20 08:16:00;;;;;;;18.58;7.80;;;;;;;3.95;68.49;99572.59;3549816;27;20467;-57
2021/03/20 08:17:41;;;;;;;16.27;8.57;;;;;;;4.03;64.31;99579.75;3552248;27;20160;-57
2021/03/20 08:19:23;;;;;;;21.73;11.05;;;;;;;4.04;62.80;99578.06;3549972;27;20077;-57
2021/03/20 08:21:49;;;;;;;17.25;9.18;;;;;;;4.06;64.02;99579.00;3550803;27;20050;-57